Mariq — SVA2152 — position and weather

sailwx.info

Track history (hours):
 
Tides and Currents Weather Stations Pressure Air Temp Water Temp Dewpoint Dewpoint Depression Visibility Wind Speed Wind Dir Waves Ship Positions

Mariq

Last reported at 2015-Aug-02 06:19 UTC. Time now 2015-Aug-02 14:25 UTC.
Position N 36°57' E 026°23'.

Length 57 m.

Type: Tanker. MMSI: 239758424.

Date/timePositionNaut miles runAvg speedWind from/ knotsBaromVisibWave heightAir tempDewpointWater temp
2015-Aug-02 06:19N 36°57' E 026°23'7 9.4
2015-Aug-02 05:33N 36°54' E 026°14'9 9.3
2015-Aug-02 04:33N 36°51' E 026°04'9 8.8
2015-Aug-02 03:33N 36°47' E 025°54'9 9.1
2015-Aug-02 02:33N 36°46' E 025°42'10 9.6
2015-Aug-02 01:33N 36°49' E 025°31'7 0.7
2015-Aug-01 14:17N 36°54' E 025°24'25 8.5
2015-Aug-01 11:19N 36°59' E 024°53'7 8.9
2015-Aug-01 10:33N 37°04' E 024°48'51 3.1
2015-Jul-31 18:27N 37°38' E 024°00'910.5
2015-Jul-31 17:33N 37°39' E 023°48'9 9.1
2015-Jul-31 16:33N 37°45' E 023°40'1010.0
2015-Jul-31 15:33N 37°54' E 023°35'8 7.6
2015-Jul-31 14:33N 38°02' E 023°35'0 0.1
2015-Jul-31 13:33N 38°02' E 023°36'0 0.0
2015-Jul-31 12:33N 38°02' E 023°36'0 0.0
2015-Jul-31 11:33N 38°02' E 023°36'0 0.0
2015-Jul-31 10:33N 38°02' E 023°36'0 0.0
2015-Jul-31 09:33N 38°02' E 023°36'0 0.0
2015-Jul-31 08:33N 38°02' E 023°36'0 0.0
2015-Jul-31 07:33N 38°02' E 023°36'5 4.7
2015-Jul-31 06:33N 37°58' E 023°33'8 8.3
2015-Jul-31 05:33N 37°51' E 023°39'9 8.8
2015-Jul-31 04:33N 37°43' E 023°44'9 9.2
2015-Jul-31 03:33N 37°38' E 023°53'4310.1
2015-Jul-30 23:16N 37°24' E 024°45'710.1
2015-Jul-30 22:33N 37°21' E 024°53'1210.1
2015-Jul-30 21:22N 37°18' E 025°08'810.3
2015-Jul-30 20:33N 37°16' E 025°18'1111.3
2015-Jul-30 19:32N 37°13' E 025°32'1010.0
2015-Jul-30 18:33N 37°07' E 025°41'10 9.9
2015-Jul-30 17:33N 37°00' E 025°51'6 0.6
2015-Jul-30 07:33N 36°56' E 025°56'1010.1
2015-Jul-30 06:33N 37°05' E 025°48'2 1.5
2015-Jul-30 05:31N 37°06' E 025°48'0 0.0
2015-Jul-30 04:32N 37°06' E 025°48'0 0.0
2015-Jul-30 03:33N 37°06' E 025°48'0 0.0
2015-Jul-30 02:33N 37°06' E 025°48'0 0.0
2015-Jul-30 01:34N 37°06' E 025°48'0 0.0
2015-Jul-30 00:32N 37°06' E 025°48'0 0.0
2015-Jul-29 23:25N 37°06' E 025°48'4 5.0
2015-Jul-29 22:33N 37°07' E 025°43'10 9.5
2015-Jul-29 21:33N 37°13' E 025°33'8 8.4
2015-Jul-29 20:33N 37°15' E 025°23'9 9.4
2015-Jul-29 19:33N 37°16' E 025°11'9 9.0
2015-Jul-29 18:33N 37°19' E 025°00'9 9.2
2015-Jul-29 17:33N 37°22' E 024°49'36 2.4
2015-Jul-29 02:26N 37°35' E 024°08'10 9.8
2015-Jul-29 01:26N 37°26' E 024°12'9 9.7
2015-Jul-29 00:32N 37°18' E 024°17'1210.3
2015-Jul-28 23:25N 37°08' E 024°23'1110.6
2015-Jul-28 22:23N 36°59' E 024°30'910.5
2015-Jul-28 21:33N 36°51' E 024°36'1 0.1
2015-Jul-28 04:33N 36°52' E 024°35'48 9.6
2015-Jul-27 23:31N 37°35' E 024°07'1 0.1
2015-Jul-27 13:05N 37°36' E 024°06'4610.0
2015-Jul-27 08:30N 37°04' E 024°47'1010.2
2015-Jul-27 07:32N 36°57' E 024°56'1010.2
2015-Jul-27 06:33N 36°53' E 025°08'1110.3
2015-Jul-27 05:31N 36°53' E 025°21'6 5.7
2015-Jul-27 04:29N 36°52' E 025°28'0 0.0
2015-Jul-27 03:29N 36°52' E 025°28'0 0.0
2015-Jul-27 02:32N 36°52' E 025°28'0 0.0
2015-Jul-27 01:32N 36°52' E 025°28'0 0.0
2015-Jul-27 00:32N 36°52' E 025°28'0 0.0
2015-Jul-26 23:27N 36°52' E 025°28'0 0.0
2015-Jul-26 21:33N 36°52' E 025°28'0 0.0
2015-Jul-26 20:08N 36°52' E 025°28'3 4.4
2015-Jul-26 19:33N 36°50' E 025°30'9 9.4
2015-Jul-26 18:33N 36°52' E 025°42'10 9.8
2015-Jul-26 17:33N 36°54' E 025°54'2 0.2
2015-Jul-26 07:27N 36°56' E 025°55'8 9.4
2015-Jul-26 06:33N 37°02' E 025°48'10 9.9
2015-Jul-26 05:33N 37°09' E 025°39'9 9.5
2015-Jul-26 04:33N 37°14' E 025°29'9 9.2
2015-Jul-26 03:33N 37°16' E 025°18'9 9.2
2015-Jul-26 02:33N 37°18' E 025°07'9 8.5
2015-Jul-26 01:33N 37°20' E 024°56'9 8.8
2015-Jul-26 00:33N 37°23' E 024°46'2 0.1
2015-Jul-25 08:18N 37°24' E 024°44'810.5
2015-Jul-25 07:33N 37°21' E 024°53'1110.5
2015-Jul-25 06:33N 37°21' E 025°06'10 9.9
2015-Jul-25 05:33N 37°21' E 025°18'9 9.2
2015-Jul-25 04:33N 37°21' E 025°30'10 9.9
2015-Jul-25 03:33N 37°22' E 025°43'10 9.9
2015-Jul-25 02:33N 37°23' E 025°55'1010.2
2015-Jul-25 01:32N 37°23' E 026°08'1010.2
2015-Jul-25 00:33N 37°23' E 026°21'1110.1
2015-Jul-24 23:29N 37°24' E 026°34'6 0.6
2015-Jul-24 13:24N 37°20' E 026°40'  
Track history (hours):
 
Tides and Currents Weather Stations Pressure Air Temp Water Temp Dewpoint Dewpoint Depression Visibility Wind Speed Wind Dir Waves Ship Positions

Mariq

Last reported at 2015-Aug-02 06:19 UTC. Time now 2015-Aug-02 14:25 UTC.
Position N 36°57' E 026°23'.

Length 57 m.

Type: Tanker. MMSI: 239758424.

Date/timePositionNaut miles runAvg speedWind from/ knotsBaromVisibWave heightAir tempDewpointWater temp
2015-Aug-02 06:19N 36°57' E 026°23'7 9.4
2015-Aug-02 05:33N 36°54' E 026°14'9 9.3
2015-Aug-02 04:33N 36°51' E 026°04'9 8.8
2015-Aug-02 03:33N 36°47' E 025°54'9 9.1
2015-Aug-02 02:33N 36°46' E 025°42'10 9.6
2015-Aug-02 01:33N 36°49' E 025°31'7 0.7
2015-Aug-01 14:17N 36°54' E 025°24'25 8.5
2015-Aug-01 11:19N 36°59' E 024°53'7 8.9
2015-Aug-01 10:33N 37°04' E 024°48'51 3.1
2015-Jul-31 18:27N 37°38' E 024°00'910.5
2015-Jul-31 17:33N 37°39' E 023°48'9 9.1
2015-Jul-31 16:33N 37°45' E 023°40'1010.0
2015-Jul-31 15:33N 37°54' E 023°35'8 7.6
2015-Jul-31 14:33N 38°02' E 023°35'0 0.1
2015-Jul-31 13:33N 38°02' E 023°36'0 0.0
2015-Jul-31 12:33N 38°02' E 023°36'0 0.0
2015-Jul-31 11:33N 38°02' E 023°36'0 0.0
2015-Jul-31 10:33N 38°02' E 023°36'0 0.0
2015-Jul-31 09:33N 38°02' E 023°36'0 0.0
2015-Jul-31 08:33N 38°02' E 023°36'0 0.0
2015-Jul-31 07:33N 38°02' E 023°36'5 4.7
2015-Jul-31 06:33N 37°58' E 023°33'8 8.3
2015-Jul-31 05:33N 37°51' E 023°39'9 8.8
2015-Jul-31 04:33N 37°43' E 023°44'9 9.2
2015-Jul-31 03:33N 37°38' E 023°53'4310.1
2015-Jul-30 23:16N 37°24' E 024°45'710.1
2015-Jul-30 22:33N 37°21' E 024°53'1210.1
2015-Jul-30 21:22N 37°18' E 025°08'810.3
2015-Jul-30 20:33N 37°16' E 025°18'1111.3
2015-Jul-30 19:32N 37°13' E 025°32'1010.0
2015-Jul-30 18:33N 37°07' E 025°41'10 9.9
2015-Jul-30 17:33N 37°00' E 025°51'6 0.6
2015-Jul-30 07:33N 36°56' E 025°56'1010.1
2015-Jul-30 06:33N 37°05' E 025°48'2 1.5
2015-Jul-30 05:31N 37°06' E 025°48'0 0.0
2015-Jul-30 04:32N 37°06' E 025°48'0 0.0
2015-Jul-30 03:33N 37°06' E 025°48'0 0.0
2015-Jul-30 02:33N 37°06' E 025°48'0 0.0
2015-Jul-30 01:34N 37°06' E 025°48'0 0.0
2015-Jul-30 00:32N 37°06' E 025°48'0 0.0
2015-Jul-29 23:25N 37°06' E 025°48'4 5.0
2015-Jul-29 22:33N 37°07' E 025°43'10 9.5
2015-Jul-29 21:33N 37°13' E 025°33'8 8.4
2015-Jul-29 20:33N 37°15' E 025°23'9 9.4
2015-Jul-29 19:33N 37°16' E 025°11'9 9.0
2015-Jul-29 18:33N 37°19' E 025°00'9 9.2
2015-Jul-29 17:33N 37°22' E 024°49'36 2.4
2015-Jul-29 02:26N 37°35' E 024°08'10 9.8
2015-Jul-29 01:26N 37°26' E 024°12'9 9.7
2015-Jul-29 00:32N 37°18' E 024°17'1210.3
2015-Jul-28 23:25N 37°08' E 024°23'1110.6
2015-Jul-28 22:23N 36°59' E 024°30'910.5
2015-Jul-28 21:33N 36°51' E 024°36'1 0.1
2015-Jul-28 04:33N 36°52' E 024°35'48 9.6
2015-Jul-27 23:31N 37°35' E 024°07'1 0.1
2015-Jul-27 13:05N 37°36' E 024°06'4610.0
2015-Jul-27 08:30N 37°04' E 024°47'1010.2
2015-Jul-27 07:32N 36°57' E 024°56'1010.2
2015-Jul-27 06:33N 36°53' E 025°08'1110.3
2015-Jul-27 05:31N 36°53' E 025°21'6 5.7
2015-Jul-27 04:29N 36°52' E 025°28'0 0.0
2015-Jul-27 03:29N 36°52' E 025°28'0 0.0
2015-Jul-27 02:32N 36°52' E 025°28'0 0.0
2015-Jul-27 01:32N 36°52' E 025°28'0 0.0
2015-Jul-27 00:32N 36°52' E 025°28'0 0.0
2015-Jul-26 23:27N 36°52' E 025°28'0 0.0
2015-Jul-26 21:33N 36°52' E 025°28'0 0.0
2015-Jul-26 20:08N 36°52' E 025°28'3 4.4
2015-Jul-26 19:33N 36°50' E 025°30'9 9.4
2015-Jul-26 18:33N 36°52' E 025°42'10 9.8
2015-Jul-26 17:33N 36°54' E 025°54'2 0.2
2015-Jul-26 07:27N 36°56' E 025°55'8 9.4
2015-Jul-26 06:33N 37°02' E 025°48'10 9.9
2015-Jul-26 05:33N 37°09' E 025°39'9 9.5
2015-Jul-26 04:33N 37°14' E 025°29'9 9.2
2015-Jul-26 03:33N 37°16' E 025°18'9 9.2
2015-Jul-26 02:33N 37°18' E 025°07'9 8.5
2015-Jul-26 01:33N 37°20' E 024°56'9 8.8
2015-Jul-26 00:33N 37°23' E 024°46'2 0.1
2015-Jul-25 08:18N 37°24' E 024°44'810.5
2015-Jul-25 07:33N 37°21' E 024°53'1110.5
2015-Jul-25 06:33N 37°21' E 025°06'10 9.9
2015-Jul-25 05:33N 37°21' E 025°18'9 9.2
2015-Jul-25 04:33N 37°21' E 025°30'10 9.9
2015-Jul-25 03:33N 37°22' E 025°43'10 9.9
2015-Jul-25 02:33N 37°23' E 025°55'1010.2
2015-Jul-25 01:32N 37°23' E 026°08'1010.2
2015-Jul-25 00:33N 37°23' E 026°21'1110.1
2015-Jul-24 23:29N 37°24' E 026°34'6 0.6
2015-Jul-24 13:24N 37°20' E 026°40'  

Dump ship's entire track history